Terminal Aerodrome Forecast
Issued by NWS

Home | Current Version | Previous Version | Text Only | Print | Product List | Glossary On
Versions: 1 2 3 4 5 6 7 8 9 10 11 12 13 14 15 16 17 18 19 20 21 22
000
FTUS44 KTSA 172300
TAFBVO
TAF
KBVO 172328Z 1800/1824 00000KT P6SM SCT060 SCT250
     FM180800 00000KT 4SM BR VCTS SCT015CB BKN150
     FM181300 12006KT P6SM BKN050
     FM181800 12009KT P6SM SCT050 BKN100=

USA.gov is the U.S. government's official web portal to all federal, state and local government web resources and services.